sensor_id;sensor_type;location;lat;lon;timestamp;P1;durP1;ratioP1;P2;durP2;ratioP2
45466;SDS011;31212;49.734;8.490;2023-07-02T00:00:43;3.00;;;1.45;;
45466;SDS011;31212;49.734;8.490;2023-07-02T00:03:10;1.63;;;1.20;;
45466;SDS011;31212;49.734;8.490;2023-07-02T00:05:36;2.38;;;1.05;;
45466;SDS011;31212;49.734;8.490;2023-07-02T00:08:03;1.35;;;0.98;;
45466;SDS011;31212;49.734;8.490;2023-07-02T00:10:29;2.10;;;1.25;;
45466;SDS011;31212;49.734;8.490;2023-07-02T00:12:57;2.42;;;1.30;;
45466;SDS011;31212;49.734;8.490;2023-07-02T00:15:24;1.80;;;1.20;;
45466;SDS011;31212;49.734;8.490;2023-07-02T00:17:50;5.95;;;1.63;;
45466;SDS011;31212;49.734;8.490;2023-07-02T00:20:17;4.60;;;0.93;;
45466;SDS011;31212;49.734;8.490;2023-07-02T00:22:44;1.73;;;0.95;;
45466;SDS011;31212;49.734;8.490;2023-07-02T00:25:12;3.10;;;1.25;;
45466;SDS011;31212;49.734;8.490;2023-07-02T00:27:39;2.03;;;1.05;;
45466;SDS011;31212;49.734;8.490;2023-07-02T00:30:08;1.73;;;1.08;;
45466;SDS011;31212;49.734;8.490;2023-07-02T00:32:35;2.58;;;1.60;;
45466;SDS011;31212;49.734;8.490;2023-07-02T00:35:01;2.20;;;1.60;;
45466;SDS011;31212;49.734;8.490;2023-07-02T00:37:28;4.07;;;1.20;;
45466;SDS011;31212;49.734;8.490;2023-07-02T00:39:54;2.22;;;1.30;;
45466;SDS011;31212;49.734;8.490;2023-07-02T00:42:21;2.45;;;1.63;;
45466;SDS011;31212;49.734;8.490;2023-07-02T00:44:48;4.30;;;1.52;;
45466;SDS011;31212;49.734;8.490;2023-07-02T00:47:18;2.08;;;1.05;;
45466;SDS011;31212;49.734;8.490;2023-07-02T00:49:45;1.98;;;1.30;;
45466;SDS011;31212;49.734;8.490;2023-07-02T00:52:11;1.85;;;1.27;;
45466;SDS011;31212;49.734;8.490;2023-07-02T00:54:38;1.77;;;1.45;;
45466;SDS011;31212;49.734;8.490;2023-07-02T00:57:05;2.35;;;1.20;;
45466;SDS011;31212;49.734;8.490;2023-07-02T00:59:33;4.80;;;1.38;;
45466;SDS011;31212;49.734;8.490;2023-07-02T01:02:01;3.72;;;1.63;;
45466;SDS011;31212;49.734;8.490;2023-07-02T01:04:29;1.13;;;0.90;;
45466;SDS011;31212;49.734;8.490;2023-07-02T01:06:56;1.50;;;1.05;;
45466;SDS011;31212;49.734;8.490;2023-07-02T01:09:24;3.85;;;1.50;;
45466;SDS011;31212;49.734;8.490;2023-07-02T01:11:53;1.23;;;1.08;;
45466;SDS011;31212;49.734;8.490;2023-07-02T01:14:24;1.35;;;1.25;;
45466;SDS011;31212;49.734;8.490;2023-07-02T01:16:53;3.72;;;1.52;;
45466;SDS011;31212;49.734;8.490;2023-07-02T01:19:21;3.63;;;1.10;;
45466;SDS011;31212;49.734;8.490;2023-07-02T01:21:52;3.17;;;1.00;;
45466;SDS011;31212;49.734;8.490;2023-07-02T01:24:18;2.58;;;1.20;;
45466;SDS011;31212;49.734;8.490;2023-07-02T01:26:46;7.95;;;1.33;;
45466;SDS011;31212;49.734;8.490;2023-07-02T01:29:14;1.92;;;1.20;;
45466;SDS011;31212;49.734;8.490;2023-07-02T01:31:41;2.15;;;1.58;;
45466;SDS011;31212;49.734;8.490;2023-07-02T01:34:08;3.72;;;1.13;;
45466;SDS011;31212;49.734;8.490;2023-07-02T01:36:35;5.28;;;1.20;;
45466;SDS011;31212;49.734;8.490;2023-07-02T01:39:03;5.70;;;1.73;;
45466;SDS011;31212;49.734;8.490;2023-07-02T01:41:31;6.72;;;2.50;;
45466;SDS011;31212;49.734;8.490;2023-07-02T01:43:59;2.60;;;1.67;;
45466;SDS011;31212;49.734;8.490;2023-07-02T01:46:26;3.35;;;1.42;;
45466;SDS011;31212;49.734;8.490;2023-07-02T01:48:52;4.72;;;2.20;;
45466;SDS011;31212;49.734;8.490;2023-07-02T01:51:19;3.40;;;1.55;;
45466;SDS011;31212;49.734;8.490;2023-07-02T01:53:45;2.55;;;1.50;;
45466;SDS011;31212;49.734;8.490;2023-07-02T01:56:13;2.70;;;1.98;;
45466;SDS011;31212;49.734;8.490;2023-07-02T01:58:39;3.25;;;1.67;;
45466;SDS011;31212;49.734;8.490;2023-07-02T02:01:06;1.73;;;1.33;;
45466;SDS011;31212;49.734;8.490;2023-07-02T02:03:32;4.90;;;1.60;;
45466;SDS011;31212;49.734;8.490;2023-07-02T02:05:59;2.97;;;2.03;;
45466;SDS011;31212;49.734;8.490;2023-07-02T02:08:25;4.75;;;1.48;;
45466;SDS011;31212;49.734;8.490;2023-07-02T02:10:52;2.42;;;1.42;;
45466;SDS011;31212;49.734;8.490;2023-07-02T02:13:20;5.40;;;1.25;;
45466;SDS011;31212;49.734;8.490;2023-07-02T02:15:46;2.85;;;1.73;;
45466;SDS011;31212;49.734;8.490;2023-07-02T02:18:12;7.78;;;2.40;;
45466;SDS011;31212;49.734;8.490;2023-07-02T02:20:39;5.13;;;1.92;;
45466;SDS011;31212;49.734;8.490;2023-07-02T02:23:06;1.55;;;1.35;;
45466;SDS011;31212;49.734;8.490;2023-07-02T02:25:32;3.42;;;1.77;;
45466;SDS011;31212;49.734;8.490;2023-07-02T02:28:01;2.60;;;1.65;;
45466;SDS011;31212;49.734;8.490;2023-07-02T02:30:29;3.22;;;1.70;;
45466;SDS011;31212;49.734;8.490;2023-07-02T02:32:56;7.32;;;2.55;;
45466;SDS011;31212;49.734;8.490;2023-07-02T02:35:24;4.22;;;1.92;;
45466;SDS011;31212;49.734;8.490;2023-07-02T02:37:51;4.15;;;2.08;;
45466;SDS011;31212;49.734;8.490;2023-07-02T02:40:18;4.18;;;2.10;;
45466;SDS011;31212;49.734;8.490;2023-07-02T02:42:44;3.35;;;2.17;;
45466;SDS011;31212;49.734;8.490;2023-07-02T02:45:11;3.90;;;2.00;;
45466;SDS011;31212;49.734;8.490;2023-07-02T02:47:39;3.63;;;1.95;;
45466;SDS011;31212;49.734;8.490;2023-07-02T02:50:05;5.60;;;2.03;;
45466;SDS011;31212;49.734;8.490;2023-07-02T02:52:34;5.88;;;2.03;;
45466;SDS011;31212;49.734;8.490;2023-07-02T02:55:01;3.05;;;2.05;;
45466;SDS011;31212;49.734;8.490;2023-07-02T02:57:27;5.20;;;2.03;;
45466;SDS011;31212;49.734;8.490;2023-07-02T02:59:54;6.40;;;2.10;;
45466;SDS011;31212;49.734;8.490;2023-07-02T03:02:20;7.72;;;2.28;;
45466;SDS011;31212;49.734;8.490;2023-07-02T03:04:48;7.53;;;3.55;;
45466;SDS011;31212;49.734;8.490;2023-07-02T03:07:14;9.27;;;3.08;;
45466;SDS011;31212;49.734;8.490;2023-07-02T03:09:41;7.65;;;2.55;;
45466;SDS011;31212;49.734;8.490;2023-07-02T03:12:07;6.57;;;3.17;;
45466;SDS011;31212;49.734;8.490;2023-07-02T03:14:34;8.90;;;3.10;;
45466;SDS011;31212;49.734;8.490;2023-07-02T03:17:01;9.70;;;2.95;;
45466;SDS011;31212;49.734;8.490;2023-07-02T03:19:28;8.55;;;3.20;;
45466;SDS011;31212;49.734;8.490;2023-07-02T03:21:56;6.20;;;3.33;;
45466;SDS011;31212;49.734;8.490;2023-07-02T03:24:22;4.57;;;2.17;;
45466;SDS011;31212;49.734;8.490;2023-07-02T03:26:49;9.15;;;2.70;;
45466;SDS011;31212;49.734;8.490;2023-07-02T03:29:15;8.40;;;2.15;;
45466;SDS011;31212;49.734;8.490;2023-07-02T03:31:44;4.93;;;2.67;;
45466;SDS011;31212;49.734;8.490;2023-07-02T03:34:11;3.75;;;1.92;;
45466;SDS011;31212;49.734;8.490;2023-07-02T03:36:37;5.38;;;2.33;;
45466;SDS011;31212;49.734;8.490;2023-07-02T03:39:05;7.00;;;2.10;;
45466;SDS011;31212;49.734;8.490;2023-07-02T03:41:32;2.83;;;1.65;;
45466;SDS011;31212;49.734;8.490;2023-07-02T03:43:58;4.88;;;2.20;;
45466;SDS011;31212;49.734;8.490;2023-07-02T03:46:25;7.78;;;3.30;;
45466;SDS011;31212;49.734;8.490;2023-07-02T03:48:51;8.00;;;2.58;;
45466;SDS011;31212;49.734;8.490;2023-07-02T03:51:18;6.97;;;2.45;;
45466;SDS011;31212;49.734;8.490;2023-07-02T03:53:44;8.70;;;2.88;;
45466;SDS011;31212;49.734;8.490;2023-07-02T03:56:12;5.13;;;2.38;;
45466;SDS011;31212;49.734;8.490;2023-07-02T03:58:39;13.43;;;2.83;;
45466;SDS011;31212;49.734;8.490;2023-07-02T04:01:06;4.68;;;2.40;;
45466;SDS011;31212;49.734;8.490;2023-07-02T04:03:32;6.50;;;2.90;;
45466;SDS011;31212;49.734;8.490;2023-07-02T04:05:59;13.13;;;4.13;;
45466;SDS011;31212;49.734;8.490;2023-07-02T04:08:25;9.75;;;3.05;;
45466;SDS011;31212;49.734;8.490;2023-07-02T04:10:53;9.07;;;3.03;;
45466;SDS011;31212;49.734;8.490;2023-07-02T04:13:21;8.68;;;3.30;;
45466;SDS011;31212;49.734;8.490;2023-07-02T04:15:47;8.52;;;3.38;;
45466;SDS011;31212;49.734;8.490;2023-07-02T04:18:14;10.07;;;3.33;;
45466;SDS011;31212;49.734;8.490;2023-07-02T04:20:40;9.40;;;3.15;;
45466;SDS011;31212;49.734;8.490;2023-07-02T04:23:07;3.72;;;2.10;;
45466;SDS011;31212;49.734;8.490;2023-07-02T04:25:33;5.93;;;2.80;;
45466;SDS011;31212;49.734;8.490;2023-07-02T04:28:00;8.05;;;2.70;;
45466;SDS011;31212;49.734;8.490;2023-07-02T04:30:27;9.10;;;2.83;;
45466;SDS011;31212;49.734;8.490;2023-07-02T04:32:54;7.00;;;2.85;;
45466;SDS011;31212;49.734;8.490;2023-07-02T04:35:20;9.98;;;2.65;;
45466;SDS011;31212;49.734;8.490;2023-07-02T04:37:47;5.93;;;3.00;;
45466;SDS011;31212;49.734;8.490;2023-07-02T04:40:13;9.15;;;2.55;;
45466;SDS011;31212;49.734;8.490;2023-07-02T04:42:41;4.70;;;2.88;;
45466;SDS011;31212;49.734;8.490;2023-07-02T04:45:12;4.83;;;2.57;;
45466;SDS011;31212;49.734;8.490;2023-07-02T04:47:41;8.30;;;4.05;;
45466;SDS011;31212;49.734;8.490;2023-07-02T04:50:08;4.57;;;2.92;;
45466;SDS011;31212;49.734;8.490;2023-07-02T04:52:35;7.22;;;3.35;;
45466;SDS011;31212;49.734;8.490;2023-07-02T04:55:01;7.28;;;3.40;;
45466;SDS011;31212;49.734;8.490;2023-07-02T04:57:28;7.40;;;3.30;;
45466;SDS011;31212;49.734;8.490;2023-07-02T04:59:55;9.32;;;2.75;;
45466;SDS011;31212;49.734;8.490;2023-07-02T05:02:21;6.32;;;2.95;;
45466;SDS011;31212;49.734;8.490;2023-07-02T05:04:49;7.05;;;3.22;;
45466;SDS011;31212;49.734;8.490;2023-07-02T05:07:15;8.63;;;3.20;;
45466;SDS011;31212;49.734;8.490;2023-07-02T05:09:42;9.95;;;3.22;;
45466;SDS011;31212;49.734;8.490;2023-07-02T05:12:09;7.20;;;2.97;;
45466;SDS011;31212;49.734;8.490;2023-07-02T05:14:35;9.23;;;3.45;;
45466;SDS011;31212;49.734;8.490;2023-07-02T05:17:02;5.45;;;3.42;;
45466;SDS011;31212;49.734;8.490;2023-07-02T05:19:29;8.27;;;3.70;;
45466;SDS011;31212;49.734;8.490;2023-07-02T05:21:57;9.85;;;3.17;;
45466;SDS011;31212;49.734;8.490;2023-07-02T05:24:23;6.93;;;3.15;;
45466;SDS011;31212;49.734;8.490;2023-07-02T05:26:50;8.50;;;3.55;;
45466;SDS011;31212;49.734;8.490;2023-07-02T05:29:17;6.82;;;3.50;;
45466;SDS011;31212;49.734;8.490;2023-07-02T05:31:43;9.95;;;3.33;;
45466;SDS011;31212;49.734;8.490;2023-07-02T05:34:09;8.55;;;2.92;;
45466;SDS011;31212;49.734;8.490;2023-07-02T05:36:37;10.90;;;3.20;;
45466;SDS011;31212;49.734;8.490;2023-07-02T05:39:05;7.28;;;3.38;;
45466;SDS011;31212;49.734;8.490;2023-07-02T05:41:31;10.90;;;3.40;;
45466;SDS011;31212;49.734;8.490;2023-07-02T05:43:58;7.55;;;3.15;;
45466;SDS011;31212;49.734;8.490;2023-07-02T05:46:25;7.47;;;3.08;;
45466;SDS011;31212;49.734;8.490;2023-07-02T05:48:51;5.65;;;3.17;;
45466;SDS011;31212;49.734;8.490;2023-07-02T05:51:21;8.32;;;3.53;;
45466;SDS011;31212;49.734;8.490;2023-07-02T05:53:48;12.13;;;4.10;;
45466;SDS011;31212;49.734;8.490;2023-07-02T05:56:16;7.57;;;3.42;;
45466;SDS011;31212;49.734;8.490;2023-07-02T05:58:43;7.95;;;3.67;;
45466;SDS011;31212;49.734;8.490;2023-07-02T06:01:11;9.25;;;4.38;;
45466;SDS011;31212;49.734;8.490;2023-07-02T06:03:37;8.55;;;3.55;;
45466;SDS011;31212;49.734;8.490;2023-07-02T06:06:04;7.88;;;3.42;;
45466;SDS011;31212;49.734;8.490;2023-07-02T06:08:30;8.57;;;4.65;;
45466;SDS011;31212;49.734;8.490;2023-07-02T06:10:57;10.43;;;4.10;;
45466;SDS011;31212;49.734;8.490;2023-07-02T06:13:24;9.75;;;4.10;;
45466;SDS011;31212;49.734;8.490;2023-07-02T06:15:51;12.30;;;4.15;;
45466;SDS011;31212;49.734;8.490;2023-07-02T06:18:18;8.45;;;4.18;;
45466;SDS011;31212;49.734;8.490;2023-07-02T06:20:45;8.38;;;4.20;;
45466;SDS011;31212;49.734;8.490;2023-07-02T06:23:12;8.80;;;3.28;;
45466;SDS011;31212;49.734;8.490;2023-07-02T06:25:38;11.13;;;3.95;;
45466;SDS011;31212;49.734;8.490;2023-07-02T06:28:04;10.20;;;3.45;;
45466;SDS011;31212;49.734;8.490;2023-07-02T06:30:32;10.20;;;3.88;;
45466;SDS011;31212;49.734;8.490;2023-07-02T06:32:59;14.05;;;4.10;;
45466;SDS011;31212;49.734;8.490;2023-07-02T06:35:25;9.10;;;4.10;;
45466;SDS011;31212;49.734;8.490;2023-07-02T06:37:52;9.30;;;4.43;;
45466;SDS011;31212;49.734;8.490;2023-07-02T06:40:18;9.80;;;3.78;;
45466;SDS011;31212;49.734;8.490;2023-07-02T06:42:45;11.20;;;4.72;;
45466;SDS011;31212;49.734;8.490;2023-07-02T06:45:12;7.10;;;3.53;;
45466;SDS011;31212;49.734;8.490;2023-07-02T06:47:40;13.88;;;4.40;;
45466;SDS011;31212;49.734;8.490;2023-07-02T06:50:06;9.95;;;4.70;;
45466;SDS011;31212;49.734;8.490;2023-07-02T06:52:33;10.48;;;4.22;;
45466;SDS011;31212;49.734;8.490;2023-07-02T06:54:59;9.95;;;5.07;;
45466;SDS011;31212;49.734;8.490;2023-07-02T06:57:26;9.85;;;4.15;;
45466;SDS011;31212;49.734;8.490;2023-07-02T06:59:53;12.40;;;5.70;;
45466;SDS011;31212;49.734;8.490;2023-07-02T07:02:24;12.32;;;5.18;;
45466;SDS011;31212;49.734;8.490;2023-07-02T07:04:52;11.20;;;5.05;;
45466;SDS011;31212;49.734;8.490;2023-07-02T07:07:18;13.05;;;5.38;;
45466;SDS011;31212;49.734;8.490;2023-07-02T07:09:45;12.75;;;5.13;;
45466;SDS011;31212;49.734;8.490;2023-07-02T07:12:11;13.75;;;6.20;;
45466;SDS011;31212;49.734;8.490;2023-07-02T07:14:37;11.40;;;5.55;;
45466;SDS011;31212;49.734;8.490;2023-07-02T07:17:04;9.35;;;5.18;;
45466;SDS011;31212;49.734;8.490;2023-07-02T07:19:30;16.30;;;5.85;;
45466;SDS011;31212;49.734;8.490;2023-07-02T07:21:58;11.85;;;5.65;;
45466;SDS011;31212;49.734;8.490;2023-07-02T07:24:25;12.75;;;5.38;;
45466;SDS011;31212;49.734;8.490;2023-07-02T07:26:51;11.93;;;5.22;;
45466;SDS011;31212;49.734;8.490;2023-07-02T07:29:18;14.10;;;5.55;;
45466;SDS011;31212;49.734;8.490;2023-07-02T07:31:44;12.25;;;6.20;;
45466;SDS011;31212;49.734;8.490;2023-07-02T07:34:11;12.90;;;4.80;;
45466;SDS011;31212;49.734;8.490;2023-07-02T07:36:37;12.02;;;5.40;;
45466;SDS011;31212;49.734;8.490;2023-07-02T07:39:05;9.18;;;4.78;;
45466;SDS011;31212;49.734;8.490;2023-07-02T07:41:31;11.57;;;4.68;;
45466;SDS011;31212;49.734;8.490;2023-07-02T07:43:58;8.02;;;4.63;;
45466;SDS011;31212;49.734;8.490;2023-07-02T07:46:25;10.90;;;5.18;;
45466;SDS011;31212;49.734;8.490;2023-07-02T07:48:52;7.53;;;4.45;;
45466;SDS011;31212;49.734;8.490;2023-07-02T07:51:18;11.75;;;5.68;;
45466;SDS011;31212;49.734;8.490;2023-07-02T07:53:45;9.02;;;4.20;;
45466;SDS011;31212;49.734;8.490;2023-07-02T07:56:13;10.93;;;3.58;;
45466;SDS011;31212;49.734;8.490;2023-07-02T07:58:39;16.90;;;4.30;;
45466;SDS011;31212;49.734;8.490;2023-07-02T08:01:05;11.02;;;4.97;;
45466;SDS011;31212;49.734;8.490;2023-07-02T08:03:32;6.82;;;3.92;;
45466;SDS011;31212;49.734;8.490;2023-07-02T08:05:58;8.90;;;4.50;;
45466;SDS011;31212;49.734;8.490;2023-07-02T08:08:25;9.15;;;4.50;;
45466;SDS011;31212;49.734;8.490;2023-07-02T08:10:51;8.80;;;4.53;;
45466;SDS011;31212;49.734;8.490;2023-07-02T08:13:19;7.60;;;4.00;;
45466;SDS011;31212;49.734;8.490;2023-07-02T08:15:45;9.25;;;4.63;;
45466;SDS011;31212;49.734;8.490;2023-07-02T08:18:12;11.10;;;4.82;;
45466;SDS011;31212;49.734;8.490;2023-07-02T08:20:39;6.72;;;3.72;;
45466;SDS011;31212;49.734;8.490;2023-07-02T08:23:06;9.43;;;5.47;;
45466;SDS011;31212;49.734;8.490;2023-07-02T08:25:32;9.65;;;4.13;;
45466;SDS011;31212;49.734;8.490;2023-07-02T08:27:59;7.75;;;3.83;;
45466;SDS011;31212;49.734;8.490;2023-07-02T08:30:26;11.00;;;4.57;;
45466;SDS011;31212;49.734;8.490;2023-07-02T08:32:53;13.80;;;5.90;;
45466;SDS011;31212;49.734;8.490;2023-07-02T08:35:20;12.65;;;5.05;;
45466;SDS011;31212;49.734;8.490;2023-07-02T08:37:47;15.02;;;6.18;;
45466;SDS011;31212;49.734;8.490;2023-07-02T08:40:16;11.73;;;4.97;;
45466;SDS011;31212;49.734;8.490;2023-07-02T08:42:43;12.50;;;5.65;;
45466;SDS011;31212;49.734;8.490;2023-07-02T08:45:11;11.52;;;5.75;;
45466;SDS011;31212;49.734;8.490;2023-07-02T08:47:41;11.43;;;5.40;;
45466;SDS011;31212;49.734;8.490;2023-07-02T08:50:07;14.20;;;6.05;;
45466;SDS011;31212;49.734;8.490;2023-07-02T08:52:34;14.45;;;7.10;;
45466;SDS011;31212;49.734;8.490;2023-07-02T08:55:01;11.10;;;5.47;;
45466;SDS011;31212;49.734;8.490;2023-07-02T08:57:27;15.77;;;6.47;;
45466;SDS011;31212;49.734;8.490;2023-07-02T08:59:53;11.02;;;4.72;;
45466;SDS011;31212;49.734;8.490;2023-07-02T09:02:29;11.77;;;5.68;;
45466;SDS011;31212;49.734;8.490;2023-07-02T09:04:59;12.13;;;5.72;;
45466;SDS011;31212;49.734;8.490;2023-07-02T09:07:26;11.88;;;5.80;;
45466;SDS011;31212;49.734;8.490;2023-07-02T09:09:52;15.15;;;6.10;;
45466;SDS011;31212;49.734;8.490;2023-07-02T09:12:23;15.40;;;5.85;;
45466;SDS011;31212;49.734;8.490;2023-07-02T09:14:54;12.63;;;5.47;;
45466;SDS011;31212;49.734;8.490;2023-07-02T09:17:26;10.82;;;5.30;;
45466;SDS011;31212;49.734;8.490;2023-07-02T09:22:22;12.90;;;5.63;;
45466;SDS011;31212;49.734;8.490;2023-07-02T09:24:52;13.32;;;5.60;;
45466;SDS011;31212;49.734;8.490;2023-07-02T09:27:20;12.45;;;5.70;;
45466;SDS011;31212;49.734;8.490;2023-07-02T09:29:49;10.57;;;5.32;;
45466;SDS011;31212;49.734;8.490;2023-07-02T09:32:23;11.88;;;5.72;;
45466;SDS011;31212;49.734;8.490;2023-07-02T09:34:51;15.82;;;5.45;;
45466;SDS011;31212;49.734;8.490;2023-07-02T09:37:19;10.82;;;6.00;;
45466;SDS011;31212;49.734;8.490;2023-07-02T09:39:48;14.40;;;6.05;;
45466;SDS011;31212;49.734;8.490;2023-07-02T09:42:16;12.38;;;5.07;;
45466;SDS011;31212;49.734;8.490;2023-07-02T09:44:44;12.48;;;5.68;;
45466;SDS011;31212;49.734;8.490;2023-07-02T09:47:12;14.15;;;5.85;;
45466;SDS011;31212;49.734;8.490;2023-07-02T09:49:41;9.07;;;5.00;;
45466;SDS011;31212;49.734;8.490;2023-07-02T09:52:14;17.42;;;6.25;;
45466;SDS011;31212;49.734;8.490;2023-07-02T09:54:45;12.70;;;6.70;;
45466;SDS011;31212;49.734;8.490;2023-07-02T09:57:13;15.63;;;6.88;;
45466;SDS011;31212;49.734;8.490;2023-07-02T09:59:40;15.30;;;6.63;;
45466;SDS011;31212;49.734;8.490;2023-07-02T10:02:07;12.52;;;6.22;;
45466;SDS011;31212;49.734;8.490;2023-07-02T10:04:44;9.15;;;4.75;;
45466;SDS011;31212;49.734;8.490;2023-07-02T10:07:12;11.27;;;5.43;;
45466;SDS011;31212;49.734;8.490;2023-07-02T10:09:51;10.43;;;5.43;;
45466;SDS011;31212;49.734;8.490;2023-07-02T10:12:19;10.68;;;5.22;;
45466;SDS011;31212;49.734;8.490;2023-07-02T10:14:47;9.10;;;4.60;;
45466;SDS011;31212;49.734;8.490;2023-07-02T10:20:00;12.63;;;5.53;;
45466;SDS011;31212;49.734;8.490;2023-07-02T10:22:41;10.43;;;6.05;;
45466;SDS011;31212;49.734;8.490;2023-07-02T10:25:08;11.93;;;5.50;;
45466;SDS011;31212;49.734;8.490;2023-07-02T10:27:37;12.43;;;6.25;;
45466;SDS011;31212;49.734;8.490;2023-07-02T10:30:04;11.98;;;6.15;;
45466;SDS011;31212;49.734;8.490;2023-07-02T10:32:33;11.95;;;5.93;;
45466;SDS011;31212;49.734;8.490;2023-07-02T10:35:00;11.38;;;5.63;;
45466;SDS011;31212;49.734;8.490;2023-07-02T10:37:34;13.48;;;5.88;;
45466;SDS011;31212;49.734;8.490;2023-07-02T10:40:02;12.32;;;5.45;;
45466;SDS011;31212;49.734;8.490;2023-07-02T10:42:30;15.23;;;6.88;;
45466;SDS011;31212;49.734;8.490;2023-07-02T10:44:59;18.17;;;6.93;;
45466;SDS011;31212;49.734;8.490;2023-07-02T10:47:25;13.40;;;6.57;;
45466;SDS011;31212;49.734;8.490;2023-07-02T10:49:54;20.48;;;7.65;;
45466;SDS011;31212;49.734;8.490;2023-07-02T10:52:20;13.00;;;6.20;;
45466;SDS011;31212;49.734;8.490;2023-07-02T10:54:47;11.75;;;5.95;;
45466;SDS011;31212;49.734;8.490;2023-07-02T10:57:14;14.30;;;5.40;;
45466;SDS011;31212;49.734;8.490;2023-07-02T10:59:45;13.90;;;7.20;;
45466;SDS011;31212;49.734;8.490;2023-07-02T11:02:13;14.85;;;7.28;;
45466;SDS011;31212;49.734;8.490;2023-07-02T11:04:39;14.90;;;7.18;;
45466;SDS011;31212;49.734;8.490;2023-07-02T11:07:06;14.88;;;6.68;;
45466;SDS011;31212;49.734;8.490;2023-07-02T11:09:33;19.10;;;7.35;;
45466;SDS011;31212;49.734;8.490;2023-07-02T11:12:00;14.80;;;7.00;;
45466;SDS011;31212;49.734;8.490;2023-07-02T11:14:27;12.48;;;5.97;;
45466;SDS011;31212;49.734;8.490;2023-07-02T11:16:55;16.42;;;6.68;;
45466;SDS011;31212;49.734;8.490;2023-07-02T11:19:23;16.02;;;7.03;;
45466;SDS011;31212;49.734;8.490;2023-07-02T11:21:51;15.82;;;7.95;;
45466;SDS011;31212;49.734;8.490;2023-07-02T11:24:26;13.05;;;7.18;;
45466;SDS011;31212;49.734;8.490;2023-07-02T11:26:53;14.93;;;5.97;;
45466;SDS011;31212;49.734;8.490;2023-07-02T11:29:23;17.05;;;6.93;;
45466;SDS011;31212;49.734;8.490;2023-07-02T11:31:49;15.80;;;7.63;;
45466;SDS011;31212;49.734;8.490;2023-07-02T11:34:16;13.05;;;6.78;;
45466;SDS011;31212;49.734;8.490;2023-07-02T11:36:45;14.13;;;7.35;;
45466;SDS011;31212;49.734;8.490;2023-07-02T11:39:12;17.40;;;6.72;;
45466;SDS011;31212;49.734;8.490;2023-07-02T11:41:41;11.05;;;5.80;;
45466;SDS011;31212;49.734;8.490;2023-07-02T11:44:08;15.43;;;7.10;;
45466;SDS011;31212;49.734;8.490;2023-07-02T11:46:35;16.13;;;6.68;;
45466;SDS011;31212;49.734;8.490;2023-07-02T11:49:02;13.35;;;7.15;;
45466;SDS011;31212;49.734;8.490;2023-07-02T11:51:30;14.63;;;7.55;;
45466;SDS011;31212;49.734;8.490;2023-07-02T11:53:58;15.98;;;6.20;;
45466;SDS011;31212;49.734;8.490;2023-07-02T11:56:24;14.20;;;6.90;;
45466;SDS011;31212;49.734;8.490;2023-07-02T11:58:51;15.68;;;6.03;;
45466;SDS011;31212;49.734;8.490;2023-07-02T12:01:17;15.10;;;6.90;;
45466;SDS011;31212;49.734;8.490;2023-07-02T12:03:44;15.93;;;6.28;;
45466;SDS011;31212;49.734;8.490;2023-07-02T12:06:10;10.38;;;5.47;;
45466;SDS011;31212;49.734;8.490;2023-07-02T12:08:37;14.40;;;6.80;;
45466;SDS011;31212;49.734;8.490;2023-07-02T12:11:05;17.83;;;7.65;;
45466;SDS011;31212;49.734;8.490;2023-07-02T12:13:31;18.25;;;7.30;;
45466;SDS011;31212;49.734;8.490;2023-07-02T12:15:57;15.85;;;7.25;;
45466;SDS011;31212;49.734;8.490;2023-07-02T12:18:24;14.82;;;6.68;;
45466;SDS011;31212;49.734;8.490;2023-07-02T12:20:50;17.73;;;7.35;;
45466;SDS011;31212;49.734;8.490;2023-07-02T12:23:17;12.07;;;6.15;;
45466;SDS011;31212;49.734;8.490;2023-07-02T12:25:43;16.08;;;7.78;;
45466;SDS011;31212;49.734;8.490;2023-07-02T12:28:11;14.55;;;6.68;;
45466;SDS011;31212;49.734;8.490;2023-07-02T12:30:37;16.80;;;7.57;;
45466;SDS011;31212;49.734;8.490;2023-07-02T12:33:04;16.88;;;7.88;;
45466;SDS011;31212;49.734;8.490;2023-07-02T12:35:31;20.58;;;6.50;;
45466;SDS011;31212;49.734;8.490;2023-07-02T12:37:57;11.35;;;6.75;;
45466;SDS011;31212;49.734;8.490;2023-07-02T12:40:24;16.23;;;6.68;;
45466;SDS011;31212;49.734;8.490;2023-07-02T12:42:50;11.45;;;6.05;;
45466;SDS011;31212;49.734;8.490;2023-07-02T12:45:18;12.40;;;6.55;;
45466;SDS011;31212;49.734;8.490;2023-07-02T12:47:45;23.40;;;7.63;;
45466;SDS011;31212;49.734;8.490;2023-07-02T12:50:11;18.30;;;7.68;;
45466;SDS011;31212;49.734;8.490;2023-07-02T12:52:38;15.70;;;6.35;;
45466;SDS011;31212;49.734;8.490;2023-07-02T12:55:04;15.68;;;7.10;;
45466;SDS011;31212;49.734;8.490;2023-07-02T12:57:31;19.48;;;7.43;;
45466;SDS011;31212;49.734;8.490;2023-07-02T12:59:58;17.02;;;7.45;;
45466;SDS011;31212;49.734;8.490;2023-07-02T13:02:26;17.88;;;7.20;;
45466;SDS011;31212;49.734;8.490;2023-07-02T13:04:52;17.08;;;7.78;;
45466;SDS011;31212;49.734;8.490;2023-07-02T13:07:19;13.50;;;6.90;;
45466;SDS011;31212;49.734;8.490;2023-07-02T13:09:45;11.80;;;6.68;;
45466;SDS011;31212;49.734;8.490;2023-07-02T13:12:12;13.90;;;6.10;;
45466;SDS011;31212;49.734;8.490;2023-07-02T13:14:38;14.30;;;7.63;;
45466;SDS011;31212;49.734;8.490;2023-07-02T13:17:05;12.93;;;6.57;;
45466;SDS011;31212;49.734;8.490;2023-07-02T13:19:32;17.83;;;5.72;;
45466;SDS011;31212;49.734;8.490;2023-07-02T13:22:00;17.08;;;7.50;;
45466;SDS011;31212;49.734;8.490;2023-07-02T13:24:28;16.95;;;8.27;;
45466;SDS011;31212;49.734;8.490;2023-07-02T13:27:00;17.90;;;7.80;;
45466;SDS011;31212;49.734;8.490;2023-07-02T13:29:28;15.15;;;6.50;;
45466;SDS011;31212;49.734;8.490;2023-07-02T13:31:55;18.02;;;7.07;;
45466;SDS011;31212;49.734;8.490;2023-07-02T13:34:21;16.58;;;7.90;;
45466;SDS011;31212;49.734;8.490;2023-07-02T13:36:49;16.45;;;8.20;;
45466;SDS011;31212;49.734;8.490;2023-07-02T13:39:15;14.55;;;7.43;;
45466;SDS011;31212;49.734;8.490;2023-07-02T13:41:42;19.77;;;7.80;;
45466;SDS011;31212;49.734;8.490;2023-07-02T13:44:08;21.75;;;8.43;;
45466;SDS011;31212;49.734;8.490;2023-07-02T13:46:35;20.05;;;7.50;;
45466;SDS011;31212;49.734;8.490;2023-07-02T13:49:01;19.13;;;8.07;;
45466;SDS011;31212;49.734;8.490;2023-07-02T13:51:28;16.73;;;6.93;;
45466;SDS011;31212;49.734;8.490;2023-07-02T13:53:56;18.83;;;7.93;;
45466;SDS011;31212;49.734;8.490;2023-07-02T13:56:22;24.85;;;8.07;;
45466;SDS011;31212;49.734;8.490;2023-07-02T13:59:03;16.00;;;8.20;;
45466;SDS011;31212;49.734;8.490;2023-07-02T14:01:30;17.35;;;7.57;;
